sensor_id;sensor_type;location;lat;lon;timestamp;temperature;humidity
19817;DHT22;68323;49.394;8.434;2023-11-19T00:01:26;10.30;99.90
19817;DHT22;68323;49.394;8.434;2023-11-19T00:03:52;10.40;99.90
19817;DHT22;68323;49.394;8.434;2023-11-19T00:06:18;10.30;99.90
19817;DHT22;68323;49.394;8.434;2023-11-19T00:08:44;10.40;99.90
19817;DHT22;68323;49.394;8.434;2023-11-19T00:11:09;10.30;99.90
19817;DHT22;68323;49.394;8.434;2023-11-19T00:13:36;10.30;99.90
19817;DHT22;68323;49.394;8.434;2023-11-19T00:16:01;10.40;99.90
19817;DHT22;68323;49.394;8.434;2023-11-19T00:18:29;10.30;99.90
19817;DHT22;68323;49.394;8.434;2023-11-19T00:20:55;10.30;99.90
19817;DHT22;68323;49.394;8.434;2023-11-19T00:23:20;10.30;99.90
19817;DHT22;68323;49.394;8.434;2023-11-19T00:25:46;10.30;99.90
19817;DHT22;68323;49.394;8.434;2023-11-19T00:28:13;10.20;99.90
19817;DHT22;68323;49.394;8.434;2023-11-19T00:30:38;10.20;99.90
19817;DHT22;68323;49.394;8.434;2023-11-19T00:33:06;10.30;99.90
19817;DHT22;68323;49.394;8.434;2023-11-19T00:35:31;10.30;99.90
19817;DHT22;68323;49.394;8.434;2023-11-19T00:37:57;10.30;99.90
19817;DHT22;68323;49.394;8.434;2023-11-19T00:40:24;10.30;99.90
19817;DHT22;68323;49.394;8.434;2023-11-19T00:42:49;10.30;99.90
19817;DHT22;68323;49.394;8.434;2023-11-19T00:45:15;10.30;99.90
19817;DHT22;68323;49.394;8.434;2023-11-19T00:47:41;10.30;99.90
19817;DHT22;68323;49.394;8.434;2023-11-19T00:50:08;10.40;99.90
19817;DHT22;68323;49.394;8.434;2023-11-19T00:52:37;10.40;99.90
19817;DHT22;68323;49.394;8.434;2023-11-19T00:55:04;10.40;99.90
19817;DHT22;68323;49.394;8.434;2023-11-19T00:57:31;10.40;99.90
19817;DHT22;68323;49.394;8.434;2023-11-19T00:59:58;10.40;99.90
19817;DHT22;68323;49.394;8.434;2023-11-19T01:02:24;10.40;99.90
19817;DHT22;68323;49.394;8.434;2023-11-19T01:04:50;10.40;99.90
19817;DHT22;68323;49.394;8.434;2023-11-19T01:07:16;10.40;99.90
19817;DHT22;68323;49.394;8.434;2023-11-19T01:09:42;10.40;99.90
19817;DHT22;68323;49.394;8.434;2023-11-19T01:12:08;10.40;99.90
19817;DHT22;68323;49.394;8.434;2023-11-19T01:14:34;10.40;99.90
19817;DHT22;68323;49.394;8.434;2023-11-19T01:17:01;10.40;99.90
19817;DHT22;68323;49.394;8.434;2023-11-19T01:19:26;10.40;99.90
19817;DHT22;68323;49.394;8.434;2023-11-19T01:21:54;10.50;99.90
19817;DHT22;68323;49.394;8.434;2023-11-19T01:24:20;10.40;99.90
19817;DHT22;68323;49.394;8.434;2023-11-19T01:26:46;10.40;99.90
19817;DHT22;68323;49.394;8.434;2023-11-19T01:29:12;10.40;99.90
19817;DHT22;68323;49.394;8.434;2023-11-19T01:31:40;10.50;99.90
19817;DHT22;68323;49.394;8.434;2023-11-19T01:34:05;10.50;99.90
19817;DHT22;68323;49.394;8.434;2023-11-19T01:36:32;10.50;99.90
19817;DHT22;68323;49.394;8.434;2023-11-19T01:38:57;10.50;99.90
19817;DHT22;68323;49.394;8.434;2023-11-19T01:41:23;10.50;99.90
19817;DHT22;68323;49.394;8.434;2023-11-19T01:43:50;10.50;99.90
19817;DHT22;68323;49.394;8.434;2023-11-19T01:46:16;10.60;99.90
19817;DHT22;68323;49.394;8.434;2023-11-19T01:48:45;10.60;99.90
19817;DHT22;68323;49.394;8.434;2023-11-19T01:51:12;10.60;99.90
19817;DHT22;68323;49.394;8.434;2023-11-19T01:53:39;10.60;99.90
19817;DHT22;68323;49.394;8.434;2023-11-19T01:56:08;10.60;99.90
19817;DHT22;68323;49.394;8.434;2023-11-19T01:58:38;10.60;99.90
19817;DHT22;68323;49.394;8.434;2023-11-19T02:01:05;10.60;99.90
19817;DHT22;68323;49.394;8.434;2023-11-19T02:03:32;10.60;99.90
19817;DHT22;68323;49.394;8.434;2023-11-19T02:06:02;10.70;99.90
19817;DHT22;68323;49.394;8.434;2023-11-19T02:08:29;10.70;99.90
19817;DHT22;68323;49.394;8.434;2023-11-19T02:10:55;10.70;99.90
19817;DHT22;68323;49.394;8.434;2023-11-19T02:13:26;10.70;99.90
19817;DHT22;68323;49.394;8.434;2023-11-19T02:15:52;10.70;99.90
19817;DHT22;68323;49.394;8.434;2023-11-19T02:18:22;10.70;99.90
19817;DHT22;68323;49.394;8.434;2023-11-19T02:20:49;10.70;99.90
19817;DHT22;68323;49.394;8.434;2023-11-19T02:23:16;10.70;99.90
19817;DHT22;68323;49.394;8.434;2023-11-19T02:25:43;10.70;99.90
19817;DHT22;68323;49.394;8.434;2023-11-19T02:28:10;10.70;99.90
19817;DHT22;68323;49.394;8.434;2023-11-19T02:30:37;10.80;99.90
19817;DHT22;68323;49.394;8.434;2023-11-19T02:33:03;10.80;99.90
19817;DHT22;68323;49.394;8.434;2023-11-19T02:35:31;10.80;99.90
19817;DHT22;68323;49.394;8.434;2023-11-19T02:37:58;10.80;99.90
19817;DHT22;68323;49.394;8.434;2023-11-19T02:40:26;10.80;99.90
19817;DHT22;68323;49.394;8.434;2023-11-19T02:42:53;10.90;99.90
19817;DHT22;68323;49.394;8.434;2023-11-19T02:45:19;10.90;99.90
19817;DHT22;68323;49.394;8.434;2023-11-19T02:47:45;10.90;99.90
19817;DHT22;68323;49.394;8.434;2023-11-19T02:50:11;10.90;99.90
19817;DHT22;68323;49.394;8.434;2023-11-19T02:52:41;10.90;99.90
19817;DHT22;68323;49.394;8.434;2023-11-19T02:55:07;11.00;99.90
19817;DHT22;68323;49.394;8.434;2023-11-19T02:57:35;11.00;99.90
19817;DHT22;68323;49.394;8.434;2023-11-19T03:00:00;11.00;99.90
19817;DHT22;68323;49.394;8.434;2023-11-19T03:02:26;11.00;99.90
19817;DHT22;68323;49.394;8.434;2023-11-19T03:04:59;11.00;99.90
19817;DHT22;68323;49.394;8.434;2023-11-19T03:07:25;11.00;99.90
19817;DHT22;68323;49.394;8.434;2023-11-19T03:09:50;11.10;99.90
19817;DHT22;68323;49.394;8.434;2023-11-19T03:12:16;11.10;99.90
19817;DHT22;68323;49.394;8.434;2023-11-19T03:14:41;11.10;99.90
19817;DHT22;68323;49.394;8.434;2023-11-19T03:17:07;11.10;99.90
19817;DHT22;68323;49.394;8.434;2023-11-19T03:19:35;11.10;99.90
19817;DHT22;68323;49.394;8.434;2023-11-19T03:22:01;11.10;99.90
19817;DHT22;68323;49.394;8.434;2023-11-19T03:24:27;11.10;99.90
19817;DHT22;68323;49.394;8.434;2023-11-19T03:26:53;11.10;99.90
19817;DHT22;68323;49.394;8.434;2023-11-19T03:29:18;11.20;99.90
19817;DHT22;68323;49.394;8.434;2023-11-19T03:31:44;11.20;99.90
19817;DHT22;68323;49.394;8.434;2023-11-19T03:34:10;11.20;99.90
19817;DHT22;68323;49.394;8.434;2023-11-19T03:36:35;11.30;99.90
19817;DHT22;68323;49.394;8.434;2023-11-19T03:39:01;11.30;99.90
19817;DHT22;68323;49.394;8.434;2023-11-19T03:41:28;11.30;99.90
19817;DHT22;68323;49.394;8.434;2023-11-19T03:43:54;11.30;99.90
19817;DHT22;68323;49.394;8.434;2023-11-19T03:46:20;11.30;99.90
19817;DHT22;68323;49.394;8.434;2023-11-19T03:48:47;11.30;99.90
19817;DHT22;68323;49.394;8.434;2023-11-19T03:51:13;11.40;99.90
19817;DHT22;68323;49.394;8.434;2023-11-19T03:53:45;11.40;99.90
19817;DHT22;68323;49.394;8.434;2023-11-19T03:56:11;11.40;99.90
19817;DHT22;68323;49.394;8.434;2023-11-19T03:58:37;11.40;99.90
19817;DHT22;68323;49.394;8.434;2023-11-19T04:01:04;11.40;99.90
19817;DHT22;68323;49.394;8.434;2023-11-19T04:03:30;11.50;99.90
19817;DHT22;68323;49.394;8.434;2023-11-19T04:05:55;11.50;99.90
19817;DHT22;68323;49.394;8.434;2023-11-19T04:08:21;11.50;99.90
19817;DHT22;68323;49.394;8.434;2023-11-19T04:10:47;11.50;99.90
19817;DHT22;68323;49.394;8.434;2023-11-19T04:13:12;11.50;99.90
19817;DHT22;68323;49.394;8.434;2023-11-19T04:15:38;11.60;99.90
19817;DHT22;68323;49.394;8.434;2023-11-19T04:18:04;11.60;99.90
19817;DHT22;68323;49.394;8.434;2023-11-19T04:20:29;11.70;99.90
19817;DHT22;68323;49.394;8.434;2023-11-19T04:22:55;11.70;99.90
19817;DHT22;68323;49.394;8.434;2023-11-19T04:25:21;11.80;99.90
19817;DHT22;68323;49.394;8.434;2023-11-19T04:27:47;11.80;99.90
19817;DHT22;68323;49.394;8.434;2023-11-19T04:30:13;11.90;99.90
19817;DHT22;68323;49.394;8.434;2023-11-19T04:32:39;11.90;99.90
19817;DHT22;68323;49.394;8.434;2023-11-19T04:35:05;12.80;99.90
19817;DHT22;68323;49.394;8.434;2023-11-19T04:37:32;12.00;99.90
19817;DHT22;68323;49.394;8.434;2023-11-19T04:39:57;11.90;99.90
19817;DHT22;68323;49.394;8.434;2023-11-19T04:42:23;11.90;99.90
19817;DHT22;68323;49.394;8.434;2023-11-19T04:44:49;11.90;99.90
19817;DHT22;68323;49.394;8.434;2023-11-19T04:47:15;12.00;99.90
19817;DHT22;68323;49.394;8.434;2023-11-19T04:49:41;12.00;99.90
19817;DHT22;68323;49.394;8.434;2023-11-19T04:52:09;12.00;99.90
19817;DHT22;68323;49.394;8.434;2023-11-19T04:54:35;12.10;99.90
19817;DHT22;68323;49.394;8.434;2023-11-19T04:57:00;12.10;99.90
19817;DHT22;68323;49.394;8.434;2023-11-19T04:59:26;12.10;99.90
19817;DHT22;68323;49.394;8.434;2023-11-19T05:01:53;12.10;99.90
19817;DHT22;68323;49.394;8.434;2023-11-19T05:04:18;12.20;99.90
19817;DHT22;68323;49.394;8.434;2023-11-19T05:06:44;12.20;99.90
19817;DHT22;68323;49.394;8.434;2023-11-19T05:09:09;12.20;99.90
19817;DHT22;68323;49.394;8.434;2023-11-19T05:11:37;12.20;99.90
19817;DHT22;68323;49.394;8.434;2023-11-19T05:14:04;12.20;99.90
19817;DHT22;68323;49.394;8.434;2023-11-19T05:16:30;12.20;99.90
19817;DHT22;68323;49.394;8.434;2023-11-19T05:18:56;12.20;99.90
19817;DHT22;68323;49.394;8.434;2023-11-19T05:21:21;12.30;99.90
19817;DHT22;68323;49.394;8.434;2023-11-19T05:23:47;12.30;99.90
19817;DHT22;68323;49.394;8.434;2023-11-19T05:26:20;12.30;99.90
19817;DHT22;68323;49.394;8.434;2023-11-19T05:28:47;12.30;99.90
19817;DHT22;68323;49.394;8.434;2023-11-19T05:31:12;12.30;99.90
19817;DHT22;68323;49.394;8.434;2023-11-19T05:33:38;12.40;99.90
19817;DHT22;68323;49.394;8.434;2023-11-19T05:36:05;12.40;99.90
19817;DHT22;68323;49.394;8.434;2023-11-19T05:38:30;12.50;99.90
19817;DHT22;68323;49.394;8.434;2023-11-19T05:40:56;12.50;99.90
19817;DHT22;68323;49.394;8.434;2023-11-19T05:43:22;12.60;99.90
19817;DHT22;68323;49.394;8.434;2023-11-19T05:45:48;12.50;99.90
19817;DHT22;68323;49.394;8.434;2023-11-19T05:48:13;12.60;99.90
19817;DHT22;68323;49.394;8.434;2023-11-19T05:50:39;12.60;99.90
19817;DHT22;68323;49.394;8.434;2023-11-19T05:53:05;12.60;99.90
19817;DHT22;68323;49.394;8.434;2023-11-19T05:55:34;12.60;99.90
19817;DHT22;68323;49.394;8.434;2023-11-19T05:58:00;12.60;99.90
19817;DHT22;68323;49.394;8.434;2023-11-19T06:00:26;12.60;99.90
19817;DHT22;68323;49.394;8.434;2023-11-19T06:02:52;12.60;99.90
19817;DHT22;68323;49.394;8.434;2023-11-19T06:05:17;12.60;99.90
19817;DHT22;68323;49.394;8.434;2023-11-19T06:07:43;12.60;99.90
19817;DHT22;68323;49.394;8.434;2023-11-19T06:10:09;12.70;99.90
19817;DHT22;68323;49.394;8.434;2023-11-19T06:12:37;12.60;99.90
19817;DHT22;68323;49.394;8.434;2023-11-19T06:15:07;12.70;99.90
19817;DHT22;68323;49.394;8.434;2023-11-19T06:17:34;12.70;99.90
19817;DHT22;68323;49.394;8.434;2023-11-19T06:19:59;12.70;99.90
19817;DHT22;68323;49.394;8.434;2023-11-19T06:22:25;12.70;99.90
19817;DHT22;68323;49.394;8.434;2023-11-19T06:24:50;12.80;99.90
19817;DHT22;68323;49.394;8.434;2023-11-19T06:27:16;12.80;99.90
19817;DHT22;68323;49.394;8.434;2023-11-19T06:29:42;12.80;99.90
19817;DHT22;68323;49.394;8.434;2023-11-19T06:32:07;12.90;99.90
19817;DHT22;68323;49.394;8.434;2023-11-19T06:34:34;12.90;99.90
19817;DHT22;68323;49.394;8.434;2023-11-19T06:36:59;12.90;99.90
19817;DHT22;68323;49.394;8.434;2023-11-19T06:39:25;12.90;99.90
19817;DHT22;68323;49.394;8.434;2023-11-19T06:41:51;13.00;99.90
19817;DHT22;68323;49.394;8.434;2023-11-19T06:44:17;13.00;99.90
19817;DHT22;68323;49.394;8.434;2023-11-19T06:46:43;13.00;99.90
19817;DHT22;68323;49.394;8.434;2023-11-19T06:49:08;13.00;99.90
19817;DHT22;68323;49.394;8.434;2023-11-19T06:51:34;12.90;99.90
19817;DHT22;68323;49.394;8.434;2023-11-19T06:54:00;12.90;99.90
19817;DHT22;68323;49.394;8.434;2023-11-19T06:56:26;13.00;99.90
19817;DHT22;68323;49.394;8.434;2023-11-19T06:58:52;13.00;99.90
19817;DHT22;68323;49.394;8.434;2023-11-19T07:01:18;13.00;99.90
19817;DHT22;68323;49.394;8.434;2023-11-19T07:03:45;13.00;99.90
19817;DHT22;68323;49.394;8.434;2023-11-19T07:06:11;13.00;99.90
19817;DHT22;68323;49.394;8.434;2023-11-19T07:08:38;13.10;99.90
19817;DHT22;68323;49.394;8.434;2023-11-19T07:11:04;13.10;99.90
19817;DHT22;68323;49.394;8.434;2023-11-19T07:13:30;13.10;99.90
19817;DHT22;68323;49.394;8.434;2023-11-19T07:15:58;13.20;99.90
19817;DHT22;68323;49.394;8.434;2023-11-19T07:18:24;13.20;99.90
19817;DHT22;68323;49.394;8.434;2023-11-19T07:20:50;13.20;99.90
19817;DHT22;68323;49.394;8.434;2023-11-19T07:23:16;13.30;99.90
19817;DHT22;68323;49.394;8.434;2023-11-19T07:25:42;13.30;99.90
19817;DHT22;68323;49.394;8.434;2023-11-19T07:28:08;13.30;99.90
19817;DHT22;68323;49.394;8.434;2023-11-19T07:30:35;13.40;99.90
19817;DHT22;68323;49.394;8.434;2023-11-19T07:33:01;13.40;99.90
19817;DHT22;68323;49.394;8.434;2023-11-19T07:35:29;13.40;99.90
19817;DHT22;68323;49.394;8.434;2023-11-19T07:37:56;13.40;99.90
19817;DHT22;68323;49.394;8.434;2023-11-19T07:40:21;13.40;99.90
19817;DHT22;68323;49.394;8.434;2023-11-19T07:42:47;13.40;99.90
19817;DHT22;68323;49.394;8.434;2023-11-19T07:45:13;13.40;99.90
19817;DHT22;68323;49.394;8.434;2023-11-19T07:47:38;13.40;99.90
19817;DHT22;68323;49.394;8.434;2023-11-19T07:50:04;13.30;99.90
19817;DHT22;68323;49.394;8.434;2023-11-19T07:52:30;13.30;99.90
19817;DHT22;68323;49.394;8.434;2023-11-19T07:54:55;13.30;99.90
19817;DHT22;68323;49.394;8.434;2023-11-19T07:57:21;13.20;99.90
19817;DHT22;68323;49.394;8.434;2023-11-19T07:59:46;13.20;99.90
19817;DHT22;68323;49.394;8.434;2023-11-19T08:02:12;13.20;99.90
19817;DHT22;68323;49.394;8.434;2023-11-19T08:04:37;13.30;99.90
19817;DHT22;68323;49.394;8.434;2023-11-19T08:07:05;13.30;99.90
19817;DHT22;68323;49.394;8.434;2023-11-19T08:09:30;13.20;99.90
19817;DHT22;68323;49.394;8.434;2023-11-19T08:11:57;13.20;99.90
19817;DHT22;68323;49.394;8.434;2023-11-19T08:14:22;13.20;99.90
19817;DHT22;68323;49.394;8.434;2023-11-19T08:16:48;13.30;99.90
19817;DHT22;68323;49.394;8.434;2023-11-19T08:19:14;13.30;99.90
19817;DHT22;68323;49.394;8.434;2023-11-19T08:21:39;13.30;99.90
19817;DHT22;68323;49.394;8.434;2023-11-19T08:24:07;13.90;99.90
19817;DHT22;68323;49.394;8.434;2023-11-19T08:51:02;21.50;99.90
19817;DHT22;68323;49.394;8.434;2023-11-19T08:53:29;21.70;99.90
19817;DHT22;68323;49.394;8.434;2023-11-19T08:55:55;21.90;99.90
19817;DHT22;68323;49.394;8.434;2023-11-19T08:58:20;21.70;99.90
19817;DHT22;68323;49.394;8.434;2023-11-19T09:00:46;21.40;99.90
19817;DHT22;68323;49.394;8.434;2023-11-19T09:03:12;21.30;99.90
19817;DHT22;68323;49.394;8.434;2023-11-19T09:05:38;21.40;99.90
19817;DHT22;68323;49.394;8.434;2023-11-19T09:08:04;21.20;99.90
19817;DHT22;68323;49.394;8.434;2023-11-19T09:10:29;20.60;99.90
19817;DHT22;68323;49.394;8.434;2023-11-19T09:12:55;19.90;99.90
19817;DHT22;68323;49.394;8.434;2023-11-19T09:15:20;19.50;99.90
19817;DHT22;68323;49.394;8.434;2023-11-19T09:17:46;19.20;99.90
19817;DHT22;68323;49.394;8.434;2023-11-19T09:20:11;19.20;99.90
19817;DHT22;68323;49.394;8.434;2023-11-19T09:22:40;19.20;99.90
19817;DHT22;68323;49.394;8.434;2023-11-19T09:25:06;19.40;99.90
19817;DHT22;68323;49.394;8.434;2023-11-19T09:27:32;19.80;99.90
19817;DHT22;68323;49.394;8.434;2023-11-19T09:29:57;19.90;99.90
19817;DHT22;68323;49.394;8.434;2023-11-19T09:32:24;19.70;99.90
19817;DHT22;68323;49.394;8.434;2023-11-19T09:34:50;19.50;99.90
19817;DHT22;68323;49.394;8.434;2023-11-19T09:37:15;19.30;99.90
19817;DHT22;68323;49.394;8.434;2023-11-19T09:39:41;19.10;99.90
19817;DHT22;68323;49.394;8.434;2023-11-19T09:42:10;18.90;99.90
19817;DHT22;68323;49.394;8.434;2023-11-19T09:44:38;18.80;99.90
19817;DHT22;68323;49.394;8.434;2023-11-19T09:47:05;18.70;99.90
19817;DHT22;68323;49.394;8.434;2023-11-19T09:49:33;18.40;99.90
19817;DHT22;68323;49.394;8.434;2023-11-19T09:52:01;18.10;99.90
19817;DHT22;68323;49.394;8.434;2023-11-19T09:54:26;17.90;99.90
19817;DHT22;68323;49.394;8.434;2023-11-19T09:56:52;17.70;99.90
19817;DHT22;68323;49.394;8.434;2023-11-19T09:59:18;17.60;99.90
19817;DHT22;68323;49.394;8.434;2023-11-19T10:01:45;17.40;99.90
19817;DHT22;68323;49.394;8.434;2023-11-19T10:04:13;17.20;99.90
19817;DHT22;68323;49.394;8.434;2023-11-19T10:06:41;17.10;99.90
19817;DHT22;68323;49.394;8.434;2023-11-19T10:09:07;17.00;99.90
19817;DHT22;68323;49.394;8.434;2023-11-19T10:11:33;17.00;99.90
19817;DHT22;68323;49.394;8.434;2023-11-19T10:13:59;17.00;99.90
19817;DHT22;68323;49.394;8.434;2023-11-19T10:16:28;17.00;99.90
19817;DHT22;68323;49.394;8.434;2023-11-19T10:18:56;17.00;99.90
19817;DHT22;68323;49.394;8.434;2023-11-19T10:21:21;17.00;99.90
19817;DHT22;68323;49.394;8.434;2023-11-19T10:23:55;17.00;99.90
19817;DHT22;68323;49.394;8.434;2023-11-19T10:26:23;16.90;99.90
19817;DHT22;68323;49.394;8.434;2023-11-19T10:28:49;17.10;99.90
19817;DHT22;68323;49.394;8.434;2023-11-19T10:31:19;17.10;99.90
19817;DHT22;68323;49.394;8.434;2023-11-19T10:33:50;17.20;99.90
19817;DHT22;68323;49.394;8.434;2023-11-19T10:36:15;17.30;99.90
19817;DHT22;68323;49.394;8.434;2023-11-19T10:38:52;17.40;99.90
19817;DHT22;68323;49.394;8.434;2023-11-19T10:43:53;17.70;99.90
19817;DHT22;68323;49.394;8.434;2023-11-19T10:46:19;17.80;99.90
19817;DHT22;68323;49.394;8.434;2023-11-19T10:48:48;17.80;99.90
19817;DHT22;68323;49.394;8.434;2023-11-19T10:51:18;17.80;99.90
19817;DHT22;68323;49.394;8.434;2023-11-19T10:53:49;17.70;99.90
19817;DHT22;68323;49.394;8.434;2023-11-19T10:56:16;17.60;99.90
19817;DHT22;68323;49.394;8.434;2023-11-19T10:58:45;17.40;99.90
19817;DHT22;68323;49.394;8.434;2023-11-19T11:01:20;17.20;99.90
19817;DHT22;68323;49.394;8.434;2023-11-19T11:03:51;17.10;99.90
19817;DHT22;68323;49.394;8.434;2023-11-19T11:06:19;17.00;99.90
19817;DHT22;68323;49.394;8.434;2023-11-19T11:08:46;16.80;99.90
19817;DHT22;68323;49.394;8.434;2023-11-19T11:11:15;16.70;99.90
19817;DHT22;68323;49.394;8.434;2023-11-19T11:13:43;16.60;99.90
19817;DHT22;68323;49.394;8.434;2023-11-19T11:16:09;16.60;99.90
19817;DHT22;68323;49.394;8.434;2023-11-19T11:18:36;16.50;99.90
19817;DHT22;68323;49.394;8.434;2023-11-19T11:23:56;16.50;99.90
19817;DHT22;68323;49.394;8.434;2023-11-19T11:32:21;16.40;99.90
19817;DHT22;68323;49.394;8.434;2023-11-19T11:35:19;16.50;99.90
19817;DHT22;68323;49.394;8.434;2023-11-19T11:37:47;16.60;99.90
19817;DHT22;68323;49.394;8.434;2023-11-19T11:40:15;16.80;99.90
19817;DHT22;68323;49.394;8.434;2023-11-19T11:42:41;17.00;99.90
19817;DHT22;68323;49.394;8.434;2023-11-19T11:45:12;17.10;99.90
19817;DHT22;68323;49.394;8.434;2023-11-19T11:50:14;17.40;99.90
19817;DHT22;68323;49.394;8.434;2023-11-19T11:57:56;18.00;99.90
19817;DHT22;68323;49.394;8.434;2023-11-19T12:00:31;18.20;99.90
19817;DHT22;68323;49.394;8.434;2023-11-19T12:03:01;18.20;99.90
19817;DHT22;68323;49.394;8.434;2023-11-19T12:05:27;18.40;99.90
19817;DHT22;68323;49.394;8.434;2023-11-19T12:07:57;18.50;99.90
19817;DHT22;68323;49.394;8.434;2023-11-19T12:10:25;18.50;99.90
19817;DHT22;68323;49.394;8.434;2023-11-19T12:12:58;18.50;99.90
19817;DHT22;68323;49.394;8.434;2023-11-19T12:15:24;18.50;99.90
19817;DHT22;68323;49.394;8.434;2023-11-19T12:17:52;18.40;99.90
19817;DHT22;68323;49.394;8.434;2023-11-19T12:20:19;18.30;99.90
19817;DHT22;68323;49.394;8.434;2023-11-19T12:22:46;18.20;99.90
19817;DHT22;68323;49.394;8.434;2023-11-19T12:25:14;18.20;99.90
19817;DHT22;68323;49.394;8.434;2023-11-19T12:27:49;18.20;99.90
19817;DHT22;68323;49.394;8.434;2023-11-19T12:30:33;18.20;99.90
19817;DHT22;68323;49.394;8.434;2023-11-19T12:32:58;18.20;99.90
19817;DHT22;68323;49.394;8.434;2023-11-19T12:35:24;18.20;99.90
19817;DHT22;68323;49.394;8.434;2023-11-19T12:37:50;18.30;99.90
19817;DHT22;68323;49.394;8.434;2023-11-19T12:40:20;18.30;99.90
19817;DHT22;68323;49.394;8.434;2023-11-19T12:42:47;18.40;99.90
19817;DHT22;68323;49.394;8.434;2023-11-19T12:45:13;18.60;99.90
19817;DHT22;68323;49.394;8.434;2023-11-19T12:47:40;18.70;99.90
19817;DHT22;68323;49.394;8.434;2023-11-19T12:50:06;18.70;99.90
19817;DHT22;68323;49.394;8.434;2023-11-19T12:52:33;18.80;99.90
19817;DHT22;68323;49.394;8.434;2023-11-19T12:54:59;18.80;99.90
19817;DHT22;68323;49.394;8.434;2023-11-19T12:57:41;18.90;99.90
19817;DHT22;68323;49.394;8.434;2023-11-19T13:00:17;18.90;99.90
19817;DHT22;68323;49.394;8.434;2023-11-19T13:02:48;18.80;99.90
19817;DHT22;68323;49.394;8.434;2023-11-19T13:07:50;18.50;99.90
19817;DHT22;68323;49.394;8.434;2023-11-19T13:10:15;18.50;99.90
19817;DHT22;68323;49.394;8.434;2023-11-19T13:12:41;18.40;99.90
19817;DHT22;68323;49.394;8.434;2023-11-19T13:15:07;18.50;99.70
19817;DHT22;68323;49.394;8.434;2023-11-19T13:17:47;18.50;99.80
19817;DHT22;68323;49.394;8.434;2023-11-19T13:20:13;18.50;99.90
19817;DHT22;68323;49.394;8.434;2023-11-19T13:22:39;18.60;98.80
19817;DHT22;68323;49.394;8.434;2023-11-19T13:25:19;18.60;98.70
19817;DHT22;68323;49.394;8.434;2023-11-19T13:27:46;18.70;98.60
19817;DHT22;68323;49.394;8.434;2023-11-19T13:30:11;18.70;98.20
19817;DHT22;68323;49.394;8.434;2023-11-19T13:32:37;18.80;96.60
19817;DHT22;68323;49.394;8.434;2023-11-19T13:35:05;18.70;96.50
19817;DHT22;68323;49.394;8.434;2023-11-19T13:37:30;18.80;96.90
19817;DHT22;68323;49.394;8.434;2023-11-19T13:39:56;18.90;97.20
19817;DHT22;68323;49.394;8.434;2023-11-19T13:42:21;18.90;97.40
19817;DHT22;68323;49.394;8.434;2023-11-19T13:44:47;19.00;96.50
19817;DHT22;68323;49.394;8.434;2023-11-19T13:47:12;18.90;97.10
19817;DHT22;68323;49.394;8.434;2023-11-19T13:49:39;18.80;97.00
19817;DHT22;68323;49.394;8.434;2023-11-19T13:52:05;18.60;96.20
19817;DHT22;68323;49.394;8.434;2023-11-19T13:54:31;18.40;96.40
19817;DHT22;68323;49.394;8.434;2023-11-19T13:56:56;18.20;96.10
19817;DHT22;68323;49.394;8.434;2023-11-19T13:59:26;18.10;96.10
19817;DHT22;68323;49.394;8.434;2023-11-19T14:01:52;18.00;96.30
19817;DHT22;68323;49.394;8.434;2023-11-19T14:04:17;18.00;95.10
19817;DHT22;68323;49.394;8.434;2023-11-19T14:06:45;17.90;94.50
19817;DHT22;68323;49.394;8.434;2023-11-19T14:09:10;17.80;95.00
19817;DHT22;68323;49.394;8.434;2023-11-19T14:11:36;17.70;95.40
19817;DHT22;68323;49.394;8.434;2023-11-19T14:14:01;17.60;95.70
19817;DHT22;68323;49.394;8.434;2023-11-19T14:16:27;17.50;96.10
19817;DHT22;68323;49.394;8.434;2023-11-19T14:18:53;17.50;95.60
19817;DHT22;68323;49.394;8.434;2023-11-19T14:21:20;17.30;95.70
19817;DHT22;68323;49.394;8.434;2023-11-19T14:23:46;17.30;96.10
19817;DHT22;68323;49.394;8.434;2023-11-19T14:26:11;17.30;96.30
19817;DHT22;68323;49.394;8.434;2023-11-19T14:28:37;17.20;96.50
19817;DHT22;68323;49.394;8.434;2023-11-19T14:31:04;17.20;96.90
19817;DHT22;68323;49.394;8.434;2023-11-19T14:33:29;17.20;97.10
19817;DHT22;68323;49.394;8.434;2023-11-19T14:35:55;17.10;97.00
19817;DHT22;68323;49.394;8.434;2023-11-19T14:38:20;17.10;97.40
19817;DHT22;68323;49.394;8.434;2023-11-19T14:40:46;17.20;97.40
19817;DHT22;68323;49.394;8.434;2023-11-19T14:43:11;17.20;97.80
19817;DHT22;68323;49.394;8.434;2023-11-19T14:45:37;17.20;98.00
19817;DHT22;68323;49.394;8.434;2023-11-19T14:48:03;17.20;98.10
19817;DHT22;68323;49.394;8.434;2023-11-19T14:50:28;17.20;97.80
19817;DHT22;68323;49.394;8.434;2023-11-19T14:52:54;17.30;98.10
19817;DHT22;68323;49.394;8.434;2023-11-19T14:55:20;17.30;98.30
19817;DHT22;68323;49.394;8.434;2023-11-19T14:57:45;17.20;98.30
19817;DHT22;68323;49.394;8.434;2023-11-19T15:00:11;17.20;98.40
19817;DHT22;68323;49.394;8.434;2023-11-19T15:02:41;17.20;98.40
19817;DHT22;68323;49.394;8.434;2023-11-19T15:05:07;17.20;98.40
19817;DHT22;68323;49.394;8.434;2023-11-19T15:07:36;17.10;98.40
19817;DHT22;68323;49.394;8.434;2023-11-19T15:10:02;17.10;98.90
19817;DHT22;68323;49.394;8.434;2023-11-19T15:12:30;17.00;99.40
19817;DHT22;68323;49.394;8.434;2023-11-19T15:14:56;17.00;99.60
19817;DHT22;68323;49.394;8.434;2023-11-19T15:17:21;16.90;99.30
19817;DHT22;68323;49.394;8.434;2023-11-19T15:19:47;16.80;99.10
19817;DHT22;68323;49.394;8.434;2023-11-19T15:22:13;16.80;99.40
19817;DHT22;68323;49.394;8.434;2023-11-19T15:24:38;16.70;98.50
19817;DHT22;68323;49.394;8.434;2023-11-19T15:27:06;16.60;97.90
19817;DHT22;68323;49.394;8.434;2023-11-19T15:29:32;16.60;97.50
19817;DHT22;68323;49.394;8.434;2023-11-19T15:31:59;16.50;97.10
19817;DHT22;68323;49.394;8.434;2023-11-19T15:34:25;16.40;97.00
19817;DHT22;68323;49.394;8.434;2023-11-19T15:36:51;16.40;96.90
19817;DHT22;68323;49.394;8.434;2023-11-19T15:39:16;16.30;96.80
19817;DHT22;68323;49.394;8.434;2023-11-19T15:41:42;16.20;97.10
19817;DHT22;68323;49.394;8.434;2023-11-19T15:44:07;16.20;97.00
19817;DHT22;68323;49.394;8.434;2023-11-19T15:46:33;16.10;97.10
19817;DHT22;68323;49.394;8.434;2023-11-19T15:48:58;16.10;97.50
19817;DHT22;68323;49.394;8.434;2023-11-19T15:51:24;16.00;97.60
19817;DHT22;68323;49.394;8.434;2023-11-19T15:53:50;15.90;97.90
19817;DHT22;68323;49.394;8.434;2023-11-19T15:56:15;15.80;98.30
19817;DHT22;68323;49.394;8.434;2023-11-19T15:58:41;15.70;98.70
19817;DHT22;68323;49.394;8.434;2023-11-19T16:01:07;15.60;98.80
19817;DHT22;68323;49.394;8.434;2023-11-19T16:03:33;15.50;99.10
19817;DHT22;68323;49.394;8.434;2023-11-19T16:05:59;15.50;99.60
19817;DHT22;68323;49.394;8.434;2023-11-19T16:08:24;15.40;99.60
19817;DHT22;68323;49.394;8.434;2023-11-19T16:10:50;15.40;99.90
19817;DHT22;68323;49.394;8.434;2023-11-19T16:13:16;15.30;99.90